sensor_id;sensor_type;location;lat;lon;timestamp;P1;durP1;ratioP1;P2;durP2;ratioP2
47545;SDS011;50104;52.002;4.688;2023-09-30T00:01:23;15.23;;;5.47;;
47545;SDS011;50104;52.002;4.688;2023-09-30T00:06:24;12.85;;;6.18;;
47545;SDS011;50104;52.002;4.688;2023-09-30T00:11:25;15.40;;;6.85;;
47545;SDS011;50104;52.002;4.688;2023-09-30T00:16:26;9.70;;;5.88;;
47545;SDS011;50104;52.002;4.688;2023-09-30T00:21:26;10.93;;;5.88;;
47545;SDS011;50104;52.002;4.688;2023-09-30T00:26:27;10.60;;;5.35;;
47545;SDS011;50104;52.002;4.688;2023-09-30T00:31:28;9.90;;;5.72;;
47545;SDS011;50104;52.002;4.688;2023-09-30T00:36:29;13.23;;;5.60;;
47545;SDS011;50104;52.002;4.688;2023-09-30T00:41:29;14.95;;;5.63;;
47545;SDS011;50104;52.002;4.688;2023-09-30T00:46:31;11.02;;;6.00;;
47545;SDS011;50104;52.002;4.688;2023-09-30T00:51:33;12.00;;;5.25;;
47545;SDS011;50104;52.002;4.688;2023-09-30T00:56:33;9.50;;;5.20;;
47545;SDS011;50104;52.002;4.688;2023-09-30T01:06:43;9.52;;;5.35;;
47545;SDS011;50104;52.002;4.688;2023-09-30T01:11:44;10.32;;;6.07;;
47545;SDS011;50104;52.002;4.688;2023-09-30T01:16:45;9.05;;;5.70;;
47545;SDS011;50104;52.002;4.688;2023-09-30T01:21:46;18.13;;;6.13;;
47545;SDS011;50104;52.002;4.688;2023-09-30T01:26:49;12.77;;;5.68;;
47545;SDS011;50104;52.002;4.688;2023-09-30T01:31:50;10.13;;;6.30;;
47545;SDS011;50104;52.002;4.688;2023-09-30T01:36:52;10.13;;;6.10;;
47545;SDS011;50104;52.002;4.688;2023-09-30T01:41:52;11.13;;;6.18;;
47545;SDS011;50104;52.002;4.688;2023-09-30T01:46:54;16.20;;;6.68;;
47545;SDS011;50104;52.002;4.688;2023-09-30T01:51:54;15.52;;;7.45;;
47545;SDS011;50104;52.002;4.688;2023-09-30T01:56:55;11.45;;;8.10;;
47545;SDS011;50104;52.002;4.688;2023-09-30T02:01:56;13.65;;;7.57;;
47545;SDS011;50104;52.002;4.688;2023-09-30T02:06:57;14.43;;;7.68;;
47545;SDS011;50104;52.002;4.688;2023-09-30T02:11:58;14.40;;;7.88;;
47545;SDS011;50104;52.002;4.688;2023-09-30T02:16:59;15.75;;;8.35;;
47545;SDS011;50104;52.002;4.688;2023-09-30T02:22:00;14.13;;;9.35;;
47545;SDS011;50104;52.002;4.688;2023-09-30T02:27:01;20.13;;;9.82;;
47545;SDS011;50104;52.002;4.688;2023-09-30T02:32:02;16.95;;;9.57;;
47545;SDS011;50104;52.002;4.688;2023-09-30T02:37:03;23.25;;;10.60;;
47545;SDS011;50104;52.002;4.688;2023-09-30T02:42:04;17.48;;;10.15;;
47545;SDS011;50104;52.002;4.688;2023-09-30T02:47:04;17.88;;;10.35;;
47545;SDS011;50104;52.002;4.688;2023-09-30T02:52:05;18.25;;;10.23;;
47545;SDS011;50104;52.002;4.688;2023-09-30T02:57:06;22.00;;;10.98;;
47545;SDS011;50104;52.002;4.688;2023-09-30T03:02:09;22.00;;;11.13;;
47545;SDS011;50104;52.002;4.688;2023-09-30T03:07:11;20.95;;;11.68;;
47545;SDS011;50104;52.002;4.688;2023-09-30T03:12:14;19.73;;;10.77;;
47545;SDS011;50104;52.002;4.688;2023-09-30T03:17:14;21.80;;;11.75;;
47545;SDS011;50104;52.002;4.688;2023-09-30T03:22:15;27.10;;;12.15;;
47545;SDS011;50104;52.002;4.688;2023-09-30T03:27:16;19.00;;;11.82;;
47545;SDS011;50104;52.002;4.688;2023-09-30T03:32:17;25.00;;;12.27;;
47545;SDS011;50104;52.002;4.688;2023-09-30T03:37:18;28.20;;;14.52;;
47545;SDS011;50104;52.002;4.688;2023-09-30T03:42:19;25.77;;;13.88;;
47545;SDS011;50104;52.002;4.688;2023-09-30T03:47:20;27.83;;;14.65;;
47545;SDS011;50104;52.002;4.688;2023-09-30T03:52:21;22.45;;;12.48;;
47545;SDS011;50104;52.002;4.688;2023-09-30T03:57:25;21.17;;;13.25;;
47545;SDS011;50104;52.002;4.688;2023-09-30T04:02:28;21.23;;;12.15;;
47545;SDS011;50104;52.002;4.688;2023-09-30T04:07:28;20.48;;;13.98;;
47545;SDS011;50104;52.002;4.688;2023-09-30T04:12:29;23.92;;;13.05;;
47545;SDS011;50104;52.002;4.688;2023-09-30T04:17:32;23.50;;;13.68;;
47545;SDS011;50104;52.002;4.688;2023-09-30T04:22:33;24.55;;;13.63;;
47545;SDS011;50104;52.002;4.688;2023-09-30T04:27:36;20.98;;;12.95;;
47545;SDS011;50104;52.002;4.688;2023-09-30T04:32:37;22.98;;;13.02;;
47545;SDS011;50104;52.002;4.688;2023-09-30T04:37:38;22.20;;;12.95;;
47545;SDS011;50104;52.002;4.688;2023-09-30T04:42:39;20.80;;;12.27;;
47545;SDS011;50104;52.002;4.688;2023-09-30T04:47:40;17.67;;;12.07;;
47545;SDS011;50104;52.002;4.688;2023-09-30T04:52:41;22.40;;;12.55;;
47545;SDS011;50104;52.002;4.688;2023-09-30T04:57:43;22.33;;;12.65;;
47545;SDS011;50104;52.002;4.688;2023-09-30T05:02:45;23.13;;;12.93;;
47545;SDS011;50104;52.002;4.688;2023-09-30T05:07:46;21.55;;;13.13;;
47545;SDS011;50104;52.002;4.688;2023-09-30T05:12:47;22.02;;;12.55;;
47545;SDS011;50104;52.002;4.688;2023-09-30T05:17:48;21.60;;;13.32;;
47545;SDS011;50104;52.002;4.688;2023-09-30T05:22:50;21.85;;;13.35;;
47545;SDS011;50104;52.002;4.688;2023-09-30T05:27:51;20.98;;;12.85;;
47545;SDS011;50104;52.002;4.688;2023-09-30T05:32:52;23.52;;;12.95;;
47545;SDS011;50104;52.002;4.688;2023-09-30T05:37:53;20.70;;;13.13;;
47545;SDS011;50104;52.002;4.688;2023-09-30T05:42:54;17.73;;;12.68;;
47545;SDS011;50104;52.002;4.688;2023-09-30T05:48:01;23.55;;;15.00;;
47545;SDS011;50104;52.002;4.688;2023-09-30T05:53:05;22.45;;;14.35;;
47545;SDS011;50104;52.002;4.688;2023-09-30T05:58:06;24.02;;;15.90;;
47545;SDS011;50104;52.002;4.688;2023-09-30T06:03:07;24.95;;;15.77;;
47545;SDS011;50104;52.002;4.688;2023-09-30T06:08:09;22.70;;;15.00;;
47545;SDS011;50104;52.002;4.688;2023-09-30T06:13:16;28.15;;;16.63;;
47545;SDS011;50104;52.002;4.688;2023-09-30T06:18:17;23.50;;;16.73;;
47545;SDS011;50104;52.002;4.688;2023-09-30T06:23:18;26.83;;;17.15;;
47545;SDS011;50104;52.002;4.688;2023-09-30T06:28:18;35.00;;;18.05;;
47545;SDS011;50104;52.002;4.688;2023-09-30T06:33:26;69.18;;;19.40;;
47545;SDS011;50104;52.002;4.688;2023-09-30T06:38:29;56.60;;;20.73;;
47545;SDS011;50104;52.002;4.688;2023-09-30T06:43:30;79.18;;;23.33;;
47545;SDS011;50104;52.002;4.688;2023-09-30T06:48:32;53.22;;;22.25;;
47545;SDS011;50104;52.002;4.688;2023-09-30T06:53:33;46.85;;;22.92;;
47545;SDS011;50104;52.002;4.688;2023-09-30T06:58:34;43.38;;;23.17;;
47545;SDS011;50104;52.002;4.688;2023-09-30T07:03:35;67.78;;;25.05;;
47545;SDS011;50104;52.002;4.688;2023-09-30T07:08:36;53.75;;;25.88;;
47545;SDS011;50104;52.002;4.688;2023-09-30T07:13:36;51.35;;;27.30;;
47545;SDS011;50104;52.002;4.688;2023-09-30T07:18:37;71.68;;;27.88;;
47545;SDS011;50104;52.002;4.688;2023-09-30T07:23:38;45.00;;;26.58;;
47545;SDS011;50104;52.002;4.688;2023-09-30T07:28:39;51.33;;;28.70;;
47545;SDS011;50104;52.002;4.688;2023-09-30T07:33:40;48.55;;;27.67;;
47545;SDS011;50104;52.002;4.688;2023-09-30T07:38:41;51.58;;;29.60;;
47545;SDS011;50104;52.002;4.688;2023-09-30T07:43:42;46.85;;;28.90;;
47545;SDS011;50104;52.002;4.688;2023-09-30T07:48:43;42.65;;;28.05;;
47545;SDS011;50104;52.002;4.688;2023-09-30T07:53:43;43.55;;;26.88;;
47545;SDS011;50104;52.002;4.688;2023-09-30T07:58:44;45.75;;;26.95;;
47545;SDS011;50104;52.002;4.688;2023-09-30T08:03:45;44.60;;;26.40;;
47545;SDS011;50104;52.002;4.688;2023-09-30T08:08:46;40.60;;;24.33;;
47545;SDS011;50104;52.002;4.688;2023-09-30T08:13:47;40.47;;;23.42;;
47545;SDS011;50104;52.002;4.688;2023-09-30T08:18:48;38.88;;;24.33;;
47545;SDS011;50104;52.002;4.688;2023-09-30T08:23:49;45.78;;;23.55;;
47545;SDS011;50104;52.002;4.688;2023-09-30T08:28:50;38.22;;;22.85;;
47545;SDS011;50104;52.002;4.688;2023-09-30T08:33:51;30.58;;;19.75;;
47545;SDS011;50104;52.002;4.688;2023-09-30T08:38:52;36.03;;;20.08;;
47545;SDS011;50104;52.002;4.688;2023-09-30T08:43:52;28.45;;;16.73;;
47545;SDS011;50104;52.002;4.688;2023-09-30T08:49:03;24.50;;;15.82;;
47545;SDS011;50104;52.002;4.688;2023-09-30T08:54:06;22.30;;;14.50;;
47545;SDS011;50104;52.002;4.688;2023-09-30T08:59:07;22.35;;;14.15;;
47545;SDS011;50104;52.002;4.688;2023-09-30T09:04:10;24.20;;;12.82;;
47545;SDS011;50104;52.002;4.688;2023-09-30T09:09:14;18.73;;;11.63;;
47545;SDS011;50104;52.002;4.688;2023-09-30T09:14:17;18.23;;;11.38;;
47545;SDS011;50104;52.002;4.688;2023-09-30T09:19:19;14.80;;;7.68;;
47545;SDS011;50104;52.002;4.688;2023-09-30T09:24:31;13.55;;;7.18;;
47545;SDS011;50104;52.002;4.688;2023-09-30T09:29:39;16.75;;;7.13;;
47545;SDS011;50104;52.002;4.688;2023-09-30T09:34:42;14.05;;;5.72;;
47545;SDS011;50104;52.002;4.688;2023-09-30T09:39:54;11.85;;;5.80;;
47545;SDS011;50104;52.002;4.688;2023-09-30T09:44:59;10.13;;;4.70;;
47545;SDS011;50104;52.002;4.688;2023-09-30T09:50:05;10.55;;;4.10;;
47545;SDS011;50104;52.002;4.688;2023-09-30T09:55:07;11.52;;;4.05;;
47545;SDS011;50104;52.002;4.688;2023-09-30T10:00:11;7.50;;;3.85;;
47545;SDS011;50104;52.002;4.688;2023-09-30T10:05:16;11.48;;;3.35;;
47545;SDS011;50104;52.002;4.688;2023-09-30T10:10:20;10.45;;;3.45;;
47545;SDS011;50104;52.002;4.688;2023-09-30T10:20:27;7.20;;;3.22;;
47545;SDS011;50104;52.002;4.688;2023-09-30T10:25:33;7.25;;;3.13;;
47545;SDS011;50104;52.002;4.688;2023-09-30T10:30:42;11.77;;;3.70;;
47545;SDS011;50104;52.002;4.688;2023-09-30T10:36:34;8.27;;;2.90;;
47545;SDS011;50104;52.002;4.688;2023-09-30T10:46:41;13.57;;;3.60;;
47545;SDS011;50104;52.002;4.688;2023-09-30T10:51:42;6.70;;;3.20;;
47545;SDS011;50104;52.002;4.688;2023-09-30T10:56:43;6.55;;;2.67;;
47545;SDS011;50104;52.002;4.688;2023-09-30T11:01:43;8.55;;;2.33;;
47545;SDS011;50104;52.002;4.688;2023-09-30T11:06:45;6.97;;;2.70;;
47545;SDS011;50104;52.002;4.688;2023-09-30T11:11:50;5.65;;;1.73;;
47545;SDS011;50104;52.002;4.688;2023-09-30T11:16:54;6.50;;;2.03;;
47545;SDS011;50104;52.002;4.688;2023-09-30T11:21:58;8.57;;;2.53;;
47545;SDS011;50104;52.002;4.688;2023-09-30T11:26:58;5.97;;;2.40;;
47545;SDS011;50104;52.002;4.688;2023-09-30T11:31:59;6.13;;;2.78;;
47545;SDS011;50104;52.002;4.688;2023-09-30T11:37:02;10.35;;;3.08;;
47545;SDS011;50104;52.002;4.688;2023-09-30T11:42:12;9.50;;;3.65;;
47545;SDS011;50104;52.002;4.688;2023-09-30T11:47:28;7.43;;;2.70;;
47545;SDS011;50104;52.002;4.688;2023-09-30T11:52:34;11.60;;;2.97;;
47545;SDS011;50104;52.002;4.688;2023-09-30T11:57:36;7.57;;;3.03;;
47545;SDS011;50104;52.002;4.688;2023-09-30T12:02:37;6.95;;;2.45;;
47545;SDS011;50104;52.002;4.688;2023-09-30T12:07:40;7.25;;;2.88;;
47545;SDS011;50104;52.002;4.688;2023-09-30T12:12:42;7.95;;;2.88;;
47545;SDS011;50104;52.002;4.688;2023-09-30T12:17:43;10.48;;;2.70;;
47545;SDS011;50104;52.002;4.688;2023-09-30T12:22:43;11.10;;;2.92;;
47545;SDS011;50104;52.002;4.688;2023-09-30T12:27:45;5.68;;;2.78;;
47545;SDS011;50104;52.002;4.688;2023-09-30T12:32:46;6.03;;;2.97;;
47545;SDS011;50104;52.002;4.688;2023-09-30T12:37:47;5.72;;;3.00;;
47545;SDS011;50104;52.002;4.688;2023-09-30T12:42:48;8.15;;;3.08;;
47545;SDS011;50104;52.002;4.688;2023-09-30T12:47:49;7.20;;;3.65;;
47545;SDS011;50104;52.002;4.688;2023-09-30T12:52:52;7.82;;;3.10;;
47545;SDS011;50104;52.002;4.688;2023-09-30T12:57:53;8.55;;;3.38;;
47545;SDS011;50104;52.002;4.688;2023-09-30T13:02:54;8.35;;;3.70;;
47545;SDS011;50104;52.002;4.688;2023-09-30T13:07:55;8.95;;;3.30;;
47545;SDS011;50104;52.002;4.688;2023-09-30T13:12:57;8.90;;;3.30;;
47545;SDS011;50104;52.002;4.688;2023-09-30T13:17:57;8.45;;;3.10;;
47545;SDS011;50104;52.002;4.688;2023-09-30T13:22:59;9.35;;;3.15;;
47545;SDS011;50104;52.002;4.688;2023-09-30T13:28:00;9.52;;;3.08;;
47545;SDS011;50104;52.002;4.688;2023-09-30T13:33:02;8.40;;;3.30;;
47545;SDS011;50104;52.002;4.688;2023-09-30T13:38:03;10.10;;;3.65;;
47545;SDS011;50104;52.002;4.688;2023-09-30T13:43:04;10.20;;;3.70;;
47545;SDS011;50104;52.002;4.688;2023-09-30T13:48:05;9.10;;;3.45;;
47545;SDS011;50104;52.002;4.688;2023-09-30T13:53:06;7.65;;;2.85;;
47545;SDS011;50104;52.002;4.688;2023-09-30T13:58:07;9.63;;;3.30;;
47545;SDS011;50104;52.002;4.688;2023-09-30T14:03:09;16.60;;;4.25;;
47545;SDS011;50104;52.002;4.688;2023-09-30T14:08:10;10.73;;;3.80;;
47545;SDS011;50104;52.002;4.688;2023-09-30T14:13:11;8.48;;;3.00;;
47545;SDS011;50104;52.002;4.688;2023-09-30T14:18:12;10.13;;;2.67;;
47545;SDS011;50104;52.002;4.688;2023-09-30T14:23:15;12.60;;;2.75;;
47545;SDS011;50104;52.002;4.688;2023-09-30T14:28:15;7.57;;;2.45;;
47545;SDS011;50104;52.002;4.688;2023-09-30T14:33:17;8.25;;;2.42;;
47545;SDS011;50104;52.002;4.688;2023-09-30T14:38:18;9.30;;;2.42;;
47545;SDS011;50104;52.002;4.688;2023-09-30T14:43:19;5.38;;;1.90;;
47545;SDS011;50104;52.002;4.688;2023-09-30T14:48:20;6.18;;;2.75;;
47545;SDS011;50104;52.002;4.688;2023-09-30T14:53:21;8.85;;;2.75;;
47545;SDS011;50104;52.002;4.688;2023-09-30T14:58:22;7.82;;;2.65;;
47545;SDS011;50104;52.002;4.688;2023-09-30T15:03:22;5.85;;;2.30;;
47545;SDS011;50104;52.002;4.688;2023-09-30T15:08:23;5.70;;;2.50;;
47545;SDS011;50104;52.002;4.688;2023-09-30T15:13:24;9.40;;;2.03;;
47545;SDS011;50104;52.002;4.688;2023-09-30T15:18:26;5.65;;;2.05;;
47545;SDS011;50104;52.002;4.688;2023-09-30T15:23:27;7.50;;;2.40;;
47545;SDS011;50104;52.002;4.688;2023-09-30T15:28:27;8.68;;;2.00;;
47545;SDS011;50104;52.002;4.688;2023-09-30T15:33:29;9.07;;;3.25;;
47545;SDS011;50104;52.002;4.688;2023-09-30T15:38:30;7.57;;;2.10;;
47545;SDS011;50104;52.002;4.688;2023-09-30T15:43:31;5.05;;;1.95;;
47545;SDS011;50104;52.002;4.688;2023-09-30T15:48:33;9.48;;;3.05;;
47545;SDS011;50104;52.002;4.688;2023-09-30T15:53:34;8.65;;;1.85;;
47545;SDS011;50104;52.002;4.688;2023-09-30T15:58:36;6.70;;;2.22;;
47545;SDS011;50104;52.002;4.688;2023-09-30T16:03:37;12.25;;;2.35;;
47545;SDS011;50104;52.002;4.688;2023-09-30T16:08:37;6.95;;;2.08;;
47545;SDS011;50104;52.002;4.688;2023-09-30T16:13:38;7.35;;;1.85;;
47545;SDS011;50104;52.002;4.688;2023-09-30T16:18:39;7.43;;;2.35;;
47545;SDS011;50104;52.002;4.688;2023-09-30T16:23:40;8.23;;;2.47;;
47545;SDS011;50104;52.002;4.688;2023-09-30T16:28:41;7.57;;;2.92;;
47545;SDS011;50104;52.002;4.688;2023-09-30T16:33:42;8.40;;;3.40;;
47545;SDS011;50104;52.002;4.688;2023-09-30T16:38:43;8.80;;;2.60;;
47545;SDS011;50104;52.002;4.688;2023-09-30T16:43:44;6.43;;;2.40;;
47545;SDS011;50104;52.002;4.688;2023-09-30T16:48:44;8.27;;;3.47;;
47545;SDS011;50104;52.002;4.688;2023-09-30T16:53:45;18.52;;;10.48;;
47545;SDS011;50104;52.002;4.688;2023-09-30T16:58:46;8.93;;;4.25;;
47545;SDS011;50104;52.002;4.688;2023-09-30T17:03:47;10.10;;;3.55;;
47545;SDS011;50104;52.002;4.688;2023-09-30T17:08:48;9.27;;;2.88;;
47545;SDS011;50104;52.002;4.688;2023-09-30T17:13:49;11.60;;;3.60;;
47545;SDS011;50104;52.002;4.688;2023-09-30T17:18:50;10.52;;;4.22;;
47545;SDS011;50104;52.002;4.688;2023-09-30T17:23:50;24.55;;;16.88;;
47545;SDS011;50104;52.002;4.688;2023-09-30T17:28:53;11.75;;;5.38;;
47545;SDS011;50104;52.002;4.688;2023-09-30T17:33:54;9.55;;;4.55;;
47545;SDS011;50104;52.002;4.688;2023-09-30T17:38:55;11.27;;;4.10;;
47545;SDS011;50104;52.002;4.688;2023-09-30T17:43:56;9.63;;;3.83;;
47545;SDS011;50104;52.002;4.688;2023-09-30T17:48:58;13.07;;;5.93;;
47545;SDS011;50104;52.002;4.688;2023-09-30T17:53:59;9.35;;;4.03;;
47545;SDS011;50104;52.002;4.688;2023-09-30T17:59:00;9.40;;;3.80;;
47545;SDS011;50104;52.002;4.688;2023-09-30T18:04:01;11.13;;;4.10;;
47545;SDS011;50104;52.002;4.688;2023-09-30T18:09:03;10.20;;;4.88;;
47545;SDS011;50104;52.002;4.688;2023-09-30T18:14:04;10.82;;;3.83;;
47545;SDS011;50104;52.002;4.688;2023-09-30T18:19:06;9.05;;;3.63;;
47545;SDS011;50104;52.002;4.688;2023-09-30T18:24:08;11.25;;;4.78;;
47545;SDS011;50104;52.002;4.688;2023-09-30T18:29:09;9.57;;;4.38;;
47545;SDS011;50104;52.002;4.688;2023-09-30T18:34:11;11.63;;;6.13;;
47545;SDS011;50104;52.002;4.688;2023-09-30T18:39:11;12.38;;;5.03;;
47545;SDS011;50104;52.002;4.688;2023-09-30T18:44:12;10.23;;;5.70;;
47545;SDS011;50104;52.002;4.688;2023-09-30T18:49:13;9.80;;;5.55;;
47545;SDS011;50104;52.002;4.688;2023-09-30T18:54:14;12.60;;;5.82;;
47545;SDS011;50104;52.002;4.688;2023-09-30T18:59:15;11.75;;;5.90;;
47545;SDS011;50104;52.002;4.688;2023-09-30T19:04:20;10.48;;;6.00;;
47545;SDS011;50104;52.002;4.688;2023-09-30T19:09:21;8.63;;;5.90;;
47545;SDS011;50104;52.002;4.688;2023-09-30T19:14:22;12.48;;;5.72;;
47545;SDS011;50104;52.002;4.688;2023-09-30T19:19:23;11.13;;;4.75;;
47545;SDS011;50104;52.002;4.688;2023-09-30T19:24:24;11.20;;;4.95;;
47545;SDS011;50104;52.002;4.688;2023-09-30T19:29:25;12.63;;;4.80;;
47545;SDS011;50104;52.002;4.688;2023-09-30T19:34:26;9.25;;;4.32;;
47545;SDS011;50104;52.002;4.688;2023-09-30T19:39:27;8.68;;;4.13;;
47545;SDS011;50104;52.002;4.688;2023-09-30T19:44:29;11.02;;;4.43;;
47545;SDS011;50104;52.002;4.688;2023-09-30T19:49:30;7.57;;;4.07;;
47545;SDS011;50104;52.002;4.688;2023-09-30T19:54:31;10.18;;;4.95;;
47545;SDS011;50104;52.002;4.688;2023-09-30T19:59:31;10.82;;;4.43;;
47545;SDS011;50104;52.002;4.688;2023-09-30T20:04:32;8.30;;;4.68;;
47545;SDS011;50104;52.002;4.688;2023-09-30T20:09:33;10.60;;;4.95;;
47545;SDS011;50104;52.002;4.688;2023-09-30T20:14:38;11.73;;;5.18;;
47545;SDS011;50104;52.002;4.688;2023-09-30T20:19:40;12.23;;;5.50;;
47545;SDS011;50104;52.002;4.688;2023-09-30T20:24:41;16.30;;;6.05;;
47545;SDS011;50104;52.002;4.688;2023-09-30T20:29:42;10.68;;;6.57;;
47545;SDS011;50104;52.002;4.688;2023-09-30T20:34:46;12.85;;;7.20;;
47545;SDS011;50104;52.002;4.688;2023-09-30T20:39:47;12.35;;;6.90;;
47545;SDS011;50104;52.002;4.688;2023-09-30T20:44:48;9.88;;;7.05;;
47545;SDS011;50104;52.002;4.688;2023-09-30T20:49:50;11.65;;;7.03;;
47545;SDS011;50104;52.002;4.688;2023-09-30T20:54:51;12.98;;;7.40;;
47545;SDS011;50104;52.002;4.688;2023-09-30T20:59:52;15.05;;;7.32;;
47545;SDS011;50104;52.002;4.688;2023-09-30T21:04:53;17.63;;;7.30;;
47545;SDS011;50104;52.002;4.688;2023-09-30T21:09:54;16.02;;;7.97;;
47545;SDS011;50104;52.002;4.688;2023-09-30T21:14:55;9.93;;;7.53;;
47545;SDS011;50104;52.002;4.688;2023-09-30T21:19:56;11.90;;;7.80;;
47545;SDS011;50104;52.002;4.688;2023-09-30T21:24:57;12.07;;;7.43;;
47545;SDS011;50104;52.002;4.688;2023-09-30T21:29:59;11.30;;;8.02;;
47545;SDS011;50104;52.002;4.688;2023-09-30T21:35:01;13.65;;;7.70;;
47545;SDS011;50104;52.002;4.688;2023-09-30T21:40:02;16.30;;;8.20;;
47545;SDS011;50104;52.002;4.688;2023-09-30T21:45:04;17.95;;;8.13;;
47545;SDS011;50104;52.002;4.688;2023-09-30T21:50:06;11.63;;;8.25;;
47545;SDS011;50104;52.002;4.688;2023-09-30T21:55:09;12.05;;;8.57;;
47545;SDS011;50104;52.002;4.688;2023-09-30T22:00:12;13.07;;;8.20;;
47545;SDS011;50104;52.002;4.688;2023-09-30T22:05:26;12.95;;;8.23;;
47545;SDS011;50104;52.002;4.688;2023-09-30T22:10:27;13.40;;;8.63;;
47545;SDS011;50104;52.002;4.688;2023-09-30T22:15:28;12.85;;;8.73;;
47545;SDS011;50104;52.002;4.688;2023-09-30T22:20:29;13.75;;;8.13;;
47545;SDS011;50104;52.002;4.688;2023-09-30T22:25:32;12.05;;;8.73;;
47545;SDS011;50104;52.002;4.688;2023-09-30T22:30:37;15.98;;;8.50;;
47545;SDS011;50104;52.002;4.688;2023-09-30T22:35:37;14.48;;;8.20;;
47545;SDS011;50104;52.002;4.688;2023-09-30T22:40:41;15.35;;;8.73;;
47545;SDS011;50104;52.002;4.688;2023-09-30T22:45:43;17.27;;;8.35;;
47545;SDS011;50104;52.002;4.688;2023-09-30T22:50:45;13.98;;;8.02;;
47545;SDS011;50104;52.002;4.688;2023-09-30T22:55:46;15.60;;;8.15;;
47545;SDS011;50104;52.002;4.688;2023-09-30T23:00:47;13.43;;;8.30;;
47545;SDS011;50104;52.002;4.688;2023-09-30T23:05:47;12.73;;;7.57;;
47545;SDS011;50104;52.002;4.688;2023-09-30T23:10:48;14.20;;;8.43;;
47545;SDS011;50104;52.002;4.688;2023-09-30T23:15:49;11.93;;;7.78;;
47545;SDS011;50104;52.002;4.688;2023-09-30T23:20:50;12.90;;;8.20;;
47545;SDS011;50104;52.002;4.688;2023-09-30T23:25:51;11.43;;;7.72;;
47545;SDS011;50104;52.002;4.688;2023-09-30T23:30:53;15.55;;;8.50;;
47545;SDS011;50104;52.002;4.688;2023-09-30T23:35:54;15.82;;;8.23;;
47545;SDS011;50104;52.002;4.688;2023-09-30T23:40:55;15.45;;;8.05;;
47545;SDS011;50104;52.002;4.688;2023-09-30T23:45:56;11.13;;;6.85;;
47545;SDS011;50104;52.002;4.688;2023-09-30T23:50:57;13.43;;;7.50;;
47545;SDS011;50104;52.002;4.688;2023-09-30T23:55:59;12.88;;;7.07;;
